Time;durP1;ratioP1;P1;durP2;ratioP2;P2;SDS_P1;SDS_P2;PMS_P1;PMS_P2;Temp;Humidity;BMP_temperature;BMP_pressure;BME280_temperature;BME280_humidity;BME280_pressure;Samples;Min_cycle;Max_cycle;Signal;HPM_P1;HPM_P2
2021/03/07 00:02:18;;;;;;;2.88;1.35;;;;;;;2.48;60.90;102551.13;5036687;28;20036;-73
2021/03/07 00:04:44;;;;;;;3.13;1.30;;;;;;;2.48;61.42;102553.78;5035293;28;20025;-72
2021/03/07 00:07:09;;;;;;;2.15;1.30;;;;;;;2.50;61.37;102543.88;5035867;28;20044;-69
2021/03/07 00:09:37;;;;;;;2.08;1.10;;;;;;;2.50;61.88;102550.97;5045981;28;20023;-71
2021/03/07 00:12:03;;;;;;;2.67;1.60;;;;;;;2.45;61.59;102554.09;5039750;28;20462;-72
2021/03/07 00:14:28;;;;;;;4.57;1.83;;;;;;;2.40;61.82;102551.91;5036355;28;20037;-70
2021/03/07 00:16:54;;;;;;;3.30;1.63;;;;;;;2.41;61.79;102550.09;5036389;28;20029;-70
2021/03/07 00:19:19;;;;;;;3.72;1.75;;;;;;;2.37;61.89;102561.97;5032717;28;20125;-72
2021/03/07 00:21:45;;;;;;;2.88;1.55;;;;;;;2.37;61.79;102544.28;5037402;28;20029;-71
2021/03/07 00:24:10;;;;;;;2.25;1.40;;;;;;;2.35;62.12;102543.59;5033970;28;20033;-71
2021/03/07 00:26:36;;;;;;;2.30;1.50;;;;;;;2.20;62.76;102538.97;5030027;28;20529;-72
2021/03/07 00:29:01;;;;;;;2.72;1.33;;;;;;;2.15;62.80;102542.03;5039211;28;20022;-69
2021/03/07 00:31:27;;;;;;;1.95;1.42;;;;;;;2.11;62.35;102538.84;5033168;28;20838;-71
2021/03/07 00:33:52;;;;;;;3.30;1.90;;;;;;;2.01;62.68;102534.63;5034305;28;20025;-71
2021/03/07 00:36:18;;;;;;;3.35;1.55;;;;;;;2.03;62.48;102546.72;5038806;28;20104;-69
2021/03/07 00:38:43;;;;;;;3.63;1.10;;;;;;;1.95;63.01;102533.38;5034330;28;20052;-71
2021/03/07 00:41:09;;;;;;;2.63;1.55;;;;;;;1.89;61.99;102527.88;5034108;28;20536;-70
2021/03/07 00:43:34;;;;;;;5.55;1.17;;;;;;;1.90;62.26;102526.88;5034235;28;20601;-70
2021/03/07 00:46:00;;;;;;;2.05;1.55;;;;;;;1.85;62.44;102522.06;5035187;28;20068;-71
2021/03/07 00:48:25;;;;;;;1.55;1.23;;;;;;;1.78;62.67;102526.25;5034379;28;20029;-71
2021/03/07 00:50:51;;;;;;;3.50;1.45;;;;;;;1.70;63.07;102519.06;5033785;28;20034;-71
2021/03/07 00:53:16;;;;;;;2.28;1.20;;;;;;;1.65;63.53;102523.97;5034328;28;20026;-72
2021/03/07 00:55:41;;;;;;;2.20;1.90;;;;;;;1.68;63.54;102517.53;5036055;28;20479;-73
2021/03/07 00:58:07;;;;;;;3.40;1.52;;;;;;;1.69;63.67;102527.13;5033487;28;20033;-71
2021/03/07 01:00:33;;;;;;;2.67;1.27;;;;;;;1.64;63.84;102513.53;5034868;28;20090;-70
2021/03/07 01:02:59;;;;;;;2.75;1.70;;;;;;;1.64;64.10;102510.91;5035592;28;20029;-70
2021/03/07 01:05:31;;;;;;;1.45;1.00;;;;;;;1.59;64.14;102513.94;5038091;28;20449;-70
2021/03/07 01:07:56;;;;;;;4.60;1.38;;;;;;;1.65;64.06;102508.09;5035062;28;20631;-69
2021/03/07 01:10:57;;;;;;;3.45;1.40;;;;;;;1.58;64.15;102512.28;5034640;28;20029;-69
2021/03/07 01:13:23;;;;;;;2.42;1.25;;;;;;;1.66;64.44;102504.47;5014640;28;20044;-70
2021/03/07 01:15:49;;;;;;;3.40;1.42;;;;;;;1.64;64.79;102502.97;5031472;28;20126;-71
2021/03/07 01:18:14;;;;;;;6.47;1.75;;;;;;;1.66;64.38;102501.84;5032905;28;20070;-70
2021/03/07 01:20:43;;;;;;;3.08;2.15;;;;;;;1.62;64.78;102510.22;5035886;28;20029;-70
2021/03/07 01:23:09;;;;;;;3.50;1.38;;;;;;;1.62;64.58;102495.19;5036771;28;20131;-70
2021/03/07 01:25:34;;;;;;;1.58;1.23;;;;;;;1.70;64.69;102484.72;5048699;28;20120;-70
2021/03/07 01:28:02;;;;;;;5.40;1.70;;;;;;;1.72;64.52;102487.19;5035811;28;20104;-69
2021/03/07 01:30:31;;;;;;;1.40;1.15;;;;;;;1.67;65.24;102482.38;5035606;28;20094;-72
2021/03/07 01:32:57;;;;;;;3.05;1.58;;;;;;;1.66;65.19;102474.59;5054236;28;20056;-70
2021/03/07 01:35:22;;;;;;;3.30;1.90;;;;;;;1.66;65.19;102466.66;5035441;28;20748;-71
2021/03/07 01:37:48;;;;;;;1.90;1.45;;;;;;;1.62;65.24;102465.28;5033479;28;20510;-71
2021/03/07 01:40:17;;;;;;;3.22;1.83;;;;;;;1.59;65.21;102450.53;5036877;28;20044;-72
2021/03/07 01:42:54;;;;;;;4.72;2.03;;;;;;;1.66;65.47;102456.91;5034584;28;20662;-72
2021/03/07 01:45:22;;;;;;;2.90;2.05;;;;;;;1.59;65.58;102468.22;5034986;28;20037;-72
2021/03/07 01:47:51;;;;;;;2.65;1.75;;;;;;;1.66;65.85;102453.44;5038625;28;20495;-71
2021/03/07 01:50:18;;;;;;;7.18;1.83;;;;;;;1.57;66.09;102449.03;5033292;28;20039;-70
2021/03/07 01:52:43;;;;;;;2.80;2.28;;;;;;;1.59;66.22;102447.06;5033389;28;20100;-71
2021/03/07 01:55:10;;;;;;;5.28;2.28;;;;;;;1.53;66.45;102445.88;5036433;28;20368;-71
2021/03/07 01:57:37;;;;;;;4.30;1.90;;;;;;;1.50;66.34;102441.72;5034695;28;20041;-70
2021/03/07 02:00:14;;;;;;;4.43;1.73;;;;;;;1.57;66.08;102435.81;5035868;28;20027;-71
2021/03/07 02:02:40;;;;;;;3.05;1.70;;;;;;;1.59;66.02;102420.66;5033497;28;20025;-71
2021/03/07 02:05:08;;;;;;;4.35;2.08;;;;;;;1.56;66.28;102423.59;5032927;28;21027;-71
2021/03/07 02:07:35;;;;;;;9.57;2.42;;;;;;;1.52;66.40;102423.06;5038300;28;20537;-72
2021/03/07 02:10:01;;;;;;;7.65;2.45;;;;;;;1.55;66.46;102419.28;5036491;28;20040;-71
2021/03/07 02:12:28;;;;;;;5.13;2.42;;;;;;;1.60;66.24;102409.09;5034081;28;20116;-71
2021/03/07 02:14:56;;;;;;;6.25;2.20;;;;;;;1.59;66.30;102410.91;5033351;28;20029;-72
2021/03/07 02:17:22;;;;;;;7.60;2.15;;;;;;;1.62;65.82;102418.56;5033309;28;20072;-72
2021/03/07 02:19:48;;;;;;;5.53;2.03;;;;;;;1.61;65.47;102401.03;5030290;28;20053;-72
2021/03/07 02:22:24;;;;;;;4.18;1.90;;;;;;;1.62;65.52;102391.31;5030769;28;20033;-72
2021/03/07 02:24:50;;;;;;;3.53;2.22;;;;;;;1.62;65.74;102394.78;5035258;28;20021;-72
2021/03/07 02:27:15;;;;;;;5.60;2.63;;;;;;;1.67;65.21;102394.34;5030553;28;20035;-72
2021/03/07 02:29:41;;;;;;;4.18;2.50;;;;;;;1.63;65.46;102396.44;5031968;28;20088;-71
2021/03/07 02:32:14;;;;;;;3.58;2.13;;;;;;;1.75;65.02;102397.88;5028497;28;20021;-71
2021/03/07 02:34:51;;;;;;;3.88;1.90;;;;;;;1.68;65.45;102380.16;5033539;28;20032;-72
2021/03/07 02:37:20;;;;;;;7.22;2.33;;;;;;;1.71;65.38;102391.25;5029565;28;20025;-72
2021/03/07 02:39:46;;;;;;;3.95;2.00;;;;;;;1.75;65.17;102383.84;5049038;28;20067;-72
2021/03/07 02:42:16;;;;;;;1.70;1.50;;;;;;;1.73;65.04;102388.44;5030176;28;20169;-71
2021/03/07 02:44:49;;;;;;;4.40;2.13;;;;;;;1.76;64.91;102388.13;5030159;28;20388;-72
2021/03/07 02:47:16;;;;;;;5.43;1.98;;;;;;;1.73;64.52;102380.50;5036546;28;20033;-72
2021/03/07 02:49:42;;;;;;;4.32;2.45;;;;;;;1.68;65.09;102370.41;5032766;28;20025;-71
2021/03/07 02:52:09;;;;;;;6.22;2.45;;;;;;;1.74;64.90;102371.59;5032876;28;20043;-72
2021/03/07 02:54:37;;;;;;;3.67;2.40;;;;;;;1.74;64.75;102368.97;5031600;28;20037;-72
2021/03/07 02:57:04;;;;;;;5.18;2.00;;;;;;;1.68;64.72;102365.13;5031704;28;20029;-72
2021/03/07 02:59:31;;;;;;;9.77;2.35;;;;;;;1.67;65.01;102360.81;5038376;28;20026;-71
2021/03/07 03:01:59;;;;;;;4.68;2.80;;;;;;;1.67;64.96;102352.06;5036715;28;20025;-71
2021/03/07 03:04:26;;;;;;;6.40;2.47;;;;;;;1.65;65.03;102354.03;5039286;28;20067;-72
2021/03/07 03:06:53;;;;;;;3.95;2.22;;;;;;;1.67;65.54;102352.06;5035703;28;20033;-71
2021/03/07 03:09:21;;;;;;;4.88;2.30;;;;;;;1.67;65.52;102337.03;5049418;28;20037;-72
2021/03/07 03:11:50;;;;;;;6.13;2.22;;;;;;;1.74;64.79;102337.25;5039493;28;20523;-71
2021/03/07 03:14:16;;;;;;;3.83;2.38;;;;;;;1.71;64.83;102327.00;5032806;28;20743;-72
2021/03/07 03:16:50;;;;;;;3.95;2.13;;;;;;;1.69;64.47;102323.69;5036141;28;20029;-72
2021/03/07 03:19:16;;;;;;;4.75;2.63;;;;;;;1.74;64.36;102319.59;5038523;28;20041;-72
2021/03/07 03:21:43;;;;;;;6.38;2.53;;;;;;;1.72;64.62;102312.78;5033576;28;20040;-72
2021/03/07 03:24:09;;;;;;;3.47;2.40;;;;;;;1.70;64.33;102326.16;5038022;28;20061;-71
2021/03/07 03:26:35;;;;;;;6.00;2.83;;;;;;;1.75;64.36;102318.59;5036764;28;20120;-72
2021/03/07 03:29:03;;;;;;;3.58;2.28;;;;;;;1.73;64.83;102320.56;5034112;28;20097;-72
2021/03/07 03:31:29;;;;;;;4.38;2.30;;;;;;;1.79;64.35;102321.75;5038778;28;20029;-72
2021/03/07 03:33:54;;;;;;;4.25;2.40;;;;;;;1.76;64.28;102324.72;5039022;28;20471;-72
2021/03/07 03:36:20;;;;;;;5.97;3.38;;;;;;;1.76;64.31;102324.72;5037877;28;20029;-71
2021/03/07 03:39:10;;;;;;;4.63;2.88;;;;;;;1.76;63.90;102325.53;5034760;28;20033;-72
2021/03/07 03:41:36;;;;;;;4.05;2.03;;;;;;;1.76;64.16;102325.53;5033845;28;20021;-71
2021/03/07 03:44:07;;;;;;;5.50;2.60;;;;;;;1.73;63.78;102320.56;5030657;28;20029;-71
2021/03/07 03:46:37;;;;;;;6.07;2.40;;;;;;;1.77;63.85;102329.84;5034041;28;20025;-71
2021/03/07 03:49:08;;;;;;;3.15;2.08;;;;;;;1.77;63.70;102326.38;5046895;28;20049;-72
2021/03/07 03:51:36;;;;;;;8.57;3.08;;;;;;;1.72;63.96;102323.38;5035593;28;20032;-71
2021/03/07 03:54:03;;;;;;;2.42;1.98;;;;;;;1.76;64.03;102319.44;5034672;28;20023;-71
2021/03/07 03:56:30;;;;;;;9.23;2.70;;;;;;;1.83;63.50;102324.97;5052166;28;20039;-71
2021/03/07 03:58:57;;;;;;;5.15;2.78;;;;;;;1.86;63.69;102322.84;5035499;28;20028;-71
2021/03/07 04:01:23;;;;;;;8.70;2.65;;;;;;;1.79;63.96;102316.47;5037039;28;20048;-71
2021/03/07 04:03:53;;;;;;;4.43;2.67;;;;;;;1.77;63.74;102324.56;5033720;28;20021;-71
2021/03/07 04:06:24;;;;;;;5.65;2.67;;;;;;;1.76;64.23;102309.69;5034021;28;20080;-72
2021/03/07 04:08:54;;;;;;;7.00;2.45;;;;;;;1.72;64.01;102315.44;5034392;28;20029;-72
2021/03/07 04:11:21;;;;;;;4.50;2.22;;;;;;;1.77;64.41;102307.88;5034101;28;20507;-71
2021/03/07 04:13:47;;;;;;;3.78;2.45;;;;;;;1.81;64.10;102309.25;5048566;28;20036;-72
2021/03/07 04:16:14;;;;;;;4.68;2.42;;;;;;;1.75;64.61;102305.38;5035222;28;20021;-72
2021/03/07 04:18:40;;;;;;;6.15;2.92;;;;;;;1.80;63.83;102299.66;5032552;28;20037;-71
2021/03/07 04:21:07;;;;;;;3.05;2.50;;;;;;;1.78;64.25;102309.53;5035473;28;20029;-71
2021/03/07 04:23:32;;;;;;;6.20;3.00;;;;;;;1.77;64.08;102297.31;5033881;28;20030;-71
2021/03/07 04:25:58;;;;;;;5.47;2.50;;;;;;;1.77;64.24;102297.31;5034078;28;20033;-71
2021/03/07 04:28:24;;;;;;;5.55;2.80;;;;;;;1.80;63.81;102292.56;5033480;28;20494;-71
2021/03/07 04:30:52;;;;;;;7.30;2.97;;;;;;;1.77;63.30;102290.22;5032113;28;20045;-72
2021/03/07 04:33:18;;;;;;;4.88;2.30;;;;;;;1.81;63.57;102296.03;5035363;28;20036;-71
2021/03/07 04:35:44;;;;;;;6.95;2.92;;;;;;;1.73;63.60;102288.03;5035684;28;20041;-71
2021/03/07 04:38:09;;;;;;;9.13;2.95;;;;;;;1.79;63.89;102292.69;5033312;28;20071;-71
2021/03/07 04:40:37;;;;;;;8.65;2.63;;;;;;;1.76;63.36;102277.97;5034202;28;20507;-71
2021/03/07 04:43:03;;;;;;;6.38;3.08;;;;;;;1.77;63.70;102282.28;5034117;28;20113;-72
2021/03/07 04:45:30;;;;;;;7.88;2.63;;;;;;;1.80;63.53;102278.53;5036005;28;20057;-71
2021/03/07 04:47:55;;;;;;;7.90;3.20;;;;;;;1.86;63.59;102271.78;5037453;28;20025;-72
2021/03/07 04:50:21;;;;;;;6.30;2.88;;;;;;;1.72;64.29;102278.44;5034417;28;20036;-72
2021/03/07 04:52:46;;;;;;;7.75;2.63;;;;;;;1.79;63.79;102275.03;5033611;28;20606;-72
2021/03/07 04:55:12;;;;;;;7.63;2.97;;;;;;;1.70;64.24;102283.06;5033479;28;20033;-72
2021/03/07 04:57:38;;;;;;;8.25;2.83;;;;;;;1.76;63.72;102263.94;5038827;28;20395;-72
2021/03/07 05:00:06;;;;;;;8.27;3.53;;;;;;;1.83;64.05;102265.00;5037022;28;20033;-72
2021/03/07 05:02:32;;;;;;;6.80;2.80;;;;;;;1.71;64.40;102268.84;5034393;28;20029;-71
2021/03/07 05:04:57;;;;;;;5.80;3.08;;;;;;;1.62;64.79;102269.78;5037853;28;20398;-71
2021/03/07 05:07:23;;;;;;;6.43;2.80;;;;;;;1.63;64.98;102258.25;5035158;28;20041;-72
2021/03/07 05:09:48;;;;;;;5.53;3.13;;;;;;;1.44;66.11;102256.59;5031372;28;20040;-71
2021/03/07 05:12:14;;;;;;;7.78;3.22;;;;;;;1.50;65.80;102255.97;5035555;28;20497;-71
2021/03/07 05:14:39;;;;;;;7.35;3.58;;;;;;;1.54;65.63;102256.50;5039181;28;20456;-71
2021/03/07 05:17:04;;;;;;;9.00;3.17;;;;;;;1.54;65.74;102246.75;5033914;28;20033;-72
2021/03/07 05:19:30;;;;;;;8.48;3.67;;;;;;;1.46;65.51;102255.44;5033221;28;20040;-72
2021/03/07 05:21:55;;;;;;;5.47;2.80;;;;;;;1.45;65.70;102243.22;5035262;28;20569;-71
2021/03/07 05:24:21;;;;;;;6.18;2.80;;;;;;;1.43;65.44;102245.16;5034804;28;20041;-72
2021/03/07 05:26:46;;;;;;;6.18;3.08;;;;;;;1.41;65.78;102252.41;5033690;28;20028;-71
2021/03/07 05:29:12;;;;;;;3.85;2.67;;;;;;;1.43;65.41;102239.88;5034227;28;20112;-72
2021/03/07 05:31:38;;;;;;;6.45;2.80;;;;;;;1.37;65.57;102224.66;5034328;28;20108;-72
2021/03/07 05:34:03;;;;;;;6.47;2.95;;;;;;;1.51;64.83;102215.38;5037087;28;20388;-71
2021/03/07 05:36:28;;;;;;;5.25;2.97;;;;;;;1.51;65.00;102221.47;5034289;28;20026;-71
2021/03/07 05:38:54;;;;;;;5.15;2.40;;;;;;;1.46;65.44;102230.84;5035004;28;20055;-71
2021/03/07 05:41:20;;;;;;;6.38;2.60;;;;;;;1.42;65.34;102226.81;5033870;28;20502;-71
2021/03/07 05:43:48;;;;;;;5.90;2.28;;;;;;;1.44;65.60;102225.72;5033722;28;20037;-71
2021/03/07 05:46:14;;;;;;;5.50;2.80;;;;;;;1.32;66.06;102226.94;5037617;28;20583;-71
2021/03/07 05:48:40;;;;;;;6.63;2.60;;;;;;;1.39;66.13;102232.41;5034736;28;20104;-72
2021/03/07 05:51:11;;;;;;;6.03;2.45;;;;;;;1.33;66.40;102231.22;5034433;28;20120;-71
2021/03/07 05:53:37;;;;;;;6.38;2.50;;;;;;;1.45;66.01;102230.03;5033298;28;20029;-71
2021/03/07 05:56:03;;;;;;;5.47;2.33;;;;;;;1.48;65.71;102216.50;5041570;28;20470;-71
2021/03/07 05:58:28;;;;;;;5.43;2.53;;;;;;;1.40;66.11;102229.63;5031466;28;20039;-71
2021/03/07 06:00:54;;;;;;;4.78;3.15;;;;;;;1.46;65.80;102226.41;5036157;28;20052;-71
2021/03/07 06:03:21;;;;;;;6.55;2.45;;;;;;;1.48;65.63;102229.72;5030231;28;20145;-71
2021/03/07 06:05:51;;;;;;;4.90;2.60;;;;;;;1.43;66.04;102215.28;5035148;28;20250;-72
2021/03/07 06:08:17;;;;;;;4.53;2.50;;;;;;;1.56;65.66;102222.81;5032936;28;20022;-72
2021/03/07 06:10:43;;;;;;;3.88;2.10;;;;;;;1.50;65.81;102219.81;5033243;28;20029;-71
2021/03/07 06:13:10;;;;;;;3.45;2.40;;;;;;;1.42;66.35;102226.81;5033234;28;20082;-72
2021/03/07 06:15:42;;;;;;;4.78;2.55;;;;;;;1.53;65.23;102213.41;5034460;28;20429;-71
2021/03/07 06:18:17;;;;;;;4.85;2.80;;;;;;;1.40;66.15;102223.50;5033896;28;20518;-71
2021/03/07 06:20:44;;;;;;;17.80;2.75;;;;;;;1.49;65.46;102210.25;5031865;28;20029;-71
2021/03/07 06:23:10;;;;;;;3.75;2.58;;;;;;;1.64;64.77;102212.34;5034587;28;20048;-72
2021/03/07 06:25:51;;;;;;;6.47;3.20;;;;;;;1.65;64.36;102211.34;5033359;28;20476;-72
2021/03/07 06:28:25;;;;;;;5.60;2.25;;;;;;;1.66;64.91;102215.66;5031494;28;20164;-72
2021/03/07 06:30:53;;;;;;;5.97;2.72;;;;;;;1.66;64.95;102208.56;5032661;28;20598;-72
2021/03/07 06:33:32;;;;;;;7.35;2.50;;;;;;;1.58;65.17;102205.00;5036633;28;20032;-72
2021/03/07 06:36:30;;;;;;;7.88;2.42;;;;;;;1.61;64.76;102200.25;5037693;28;20024;-72
2021/03/07 06:39:03;;;;;;;8.15;2.50;;;;;;;1.73;64.83;102204.31;5004408;28;20048;-71
2021/03/07 06:41:31;;;;;;;4.50;2.40;;;;;;;1.74;64.76;102210.41;5036332;28;20044;-72
2021/03/07 06:44:12;;;;;;;4.50;2.50;;;;;;;1.81;64.19;102206.19;5036531;28;20101;-71
2021/03/07 06:46:40;;;;;;;9.60;2.92;;;;;;;1.76;65.03;102205.81;5039553;28;20021;-72
2021/03/07 06:49:06;;;;;;;4.50;2.25;;;;;;;1.86;64.47;102208.38;5034210;28;20028;-71
2021/03/07 06:51:33;;;;;;;3.90;1.98;;;;;;;1.89;63.84;102206.22;5037734;28;20028;-72
2021/03/07 06:54:14;;;;;;;7.65;3.40;;;;;;;1.94;63.81;102201.31;5038072;28;20053;-72
2021/03/07 06:56:41;;;;;;;5.53;2.78;;;;;;;2.00;63.93;102215.72;5040871;28;20103;-72
2021/03/07 06:59:09;;;;;;;4.70;2.05;;;;;;;2.03;63.46;102208.31;5038023;28;20033;-72
2021/03/07 07:01:45;;;;;;;4.80;2.42;;;;;;;1.95;64.20;102213.53;5053368;28;20068;-72
2021/03/07 07:04:13;;;;;;;3.22;2.53;;;;;;;1.91;64.61;102217.47;5035547;28;20057;-71
2021/03/07 07:06:39;;;;;;;5.57;2.72;;;;;;;1.99;64.47;102222.00;5038217;28;20656;-72
2021/03/07 07:09:07;;;;;;;6.28;2.53;;;;;;;2.01;64.22;102207.63;5035300;28;20151;-72
2021/03/07 07:11:44;;;;;;;9.18;2.25;;;;;;;1.95;64.13;102212.69;5034987;28;20037;-72
2021/03/07 07:14:10;;;;;;;5.00;2.55;;;;;;;1.97;64.34;102211.56;5036327;28;20020;-71
2021/03/07 07:16:35;;;;;;;10.20;3.00;;;;;;;2.03;63.83;102210.94;5037457;28;20028;-72
2021/03/07 07:19:02;;;;;;;5.07;2.63;;;;;;;1.97;63.77;102216.00;5036382;28;20029;-72
2021/03/07 07:21:27;;;;;;;5.28;2.85;;;;;;;1.93;63.91;102210.22;5035941;28;20033;-72
2021/03/07 07:23:53;;;;;;;3.85;2.70;;;;;;;2.05;63.91;102210.78;5038343;28;20109;-72
2021/03/07 07:26:18;;;;;;;4.30;2.70;;;;;;;2.07;63.51;102204.34;5040252;28;20021;-72
2021/03/07 07:28:44;;;;;;;4.53;2.30;;;;;;;2.12;63.10;102209.16;5029141;28;20026;-71
2021/03/07 07:31:21;;;;;;;5.18;2.55;;;;;;;2.08;63.94;102198.09;5037140;28;20033;-72
2021/03/07 07:33:52;;;;;;;6.22;2.60;;;;;;;2.17;62.94;102193.69;5032267;28;20028;-71
2021/03/07 07:36:30;;;;;;;5.25;2.80;;;;;;;2.23;62.38;102192.22;5037963;28;20040;-71
2021/03/07 07:38:58;;;;;;;7.30;3.67;;;;;;;2.33;62.34;102200.84;5034435;28;20021;-72
2021/03/07 07:41:36;;;;;;;7.93;3.15;;;;;;;2.24;62.03;102189.41;5051974;28;20051;-72
2021/03/07 07:44:06;;;;;;;4.80;2.63;;;;;;;2.38;61.96;102190.63;5035169;28;20059;-72
2021/03/07 07:46:33;;;;;;;9.07;3.33;;;;;;;2.36;61.89;102182.03;5035194;28;20029;-72
2021/03/07 07:49:00;;;;;;;5.15;3.33;;;;;;;2.34;61.79;102189.31;5030421;28;20116;-71
2021/03/07 07:51:35;;;;;;;5.70;3.08;;;;;;;2.36;61.84;102184.69;5042237;28;20029;-72
2021/03/07 07:54:01;;;;;;;3.33;2.28;;;;;;;2.34;61.92;102190.13;5040618;28;20479;-72
2021/03/07 07:56:34;;;;;;;9.23;3.47;;;;;;;2.31;61.82;102177.19;5036003;28;20037;-72
2021/03/07 07:58:59;;;;;;;5.45;3.80;;;;;;;2.41;61.69;102185.03;5030270;28;20124;-71
2021/03/07 08:01:54;;;;;;;6.07;3.20;;;;;;;2.32;61.64;102178.84;5033423;28;20163;-72
2021/03/07 08:04:29;;;;;;;9.77;3.47;;;;;;;2.37;61.50;102167.81;5035906;28;20063;-72
2021/03/07 08:07:01;;;;;;;9.00;3.30;;;;;;;2.48;61.23;102172.81;5050776;28;20067;-71
2021/03/07 08:09:42;;;;;;;9.15;3.60;;;;;;;2.50;61.29;102184.06;5034412;28;20024;-71
2021/03/07 08:12:45;;;;;;;5.97;3.30;;;;;;;2.61;60.94;102186.41;5033091;28;20039;-71
2021/03/07 08:15:25;;;;;;;6.72;3.17;;;;;;;2.62;61.05;102179.31;5030965;28;20476;-71
2021/03/07 08:17:58;;;;;;;5.13;2.80;;;;;;;2.61;60.96;102183.78;5035964;28;20029;-72
2021/03/07 08:20:42;;;;;;;6.32;3.17;;;;;;;2.62;60.89;102182.78;5033305;28;20040;-71
2021/03/07 08:23:13;;;;;;;6.03;3.42;;;;;;;2.64;60.83;102183.44;5032680;28;20055;-72
2021/03/07 08:25:54;;;;;;;5.18;3.03;;;;;;;2.59;60.87;102175.16;5032177;28;20550;-72
2021/03/07 08:28:25;;;;;;;6.88;3.17;;;;;;;2.62;61.19;102180.13;5034425;28;20471;-72
2021/03/07 08:30:55;;;;;;;3.88;3.28;;;;;;;2.59;61.67;102177.81;5034909;28;20053;-72
2021/03/07 08:33:25;;;;;;;6.22;3.20;;;;;;;2.61;61.19;102167.91;5032490;28;20113;-71
2021/03/07 08:36:18;;;;;;;10.70;3.63;;;;;;;2.68;60.95;102168.06;5034166;28;20029;-72
2021/03/07 08:38:52;;;;;;;6.00;2.97;;;;;;;2.63;60.46;102178.31;5030103;28;20116;-72
2021/03/07 08:41:21;;;;;;;3.47;2.75;;;;;;;2.72;60.56;102164.13;5032547;28;20047;-72
2021/03/07 08:43:57;;;;;;;6.97;3.97;;;;;;;2.47;60.83;102163.22;5038924;28;20083;-71
2021/03/07 08:46:43;;;;;;;15.02;3.67;;;;;;;2.45;61.48;102167.84;5032242;28;20031;-72
2021/03/07 08:49:14;;;;;;;7.95;3.67;;;;;;;2.50;61.01;102144.38;5030534;28;20038;-72
2021/03/07 08:51:42;;;;;;;4.63;3.08;;;;;;;2.50;61.14;102160.25;5036151;28;20064;-72
2021/03/07 08:54:22;;;;;;;6.38;3.30;;;;;;;2.64;61.33;102150.88;5034310;28;20036;-71
2021/03/07 08:56:53;;;;;;;6.95;3.55;;;;;;;2.88;61.13;102142.16;5034586;28;20041;-72
2021/03/07 08:59:27;;;;;;;6.57;3.30;;;;;;;2.94;61.06;102141.50;5032732;28;20498;-72
2021/03/07 09:01:53;;;;;;;9.88;3.92;;;;;;;2.96;60.86;102144.81;5047172;28;20025;-72
2021/03/07 09:04:19;;;;;;;5.95;3.35;;;;;;;3.03;60.52;102145.81;5033295;28;20024;-72
2021/03/07 09:06:46;;;;;;;6.53;3.17;;;;;;;3.08;60.44;102138.22;5034399;28;20537;-72
2021/03/07 09:09:21;;;;;;;8.10;3.30;;;;;;;2.94;60.85;102141.50;5032345;28;20041;-72
2021/03/07 09:12:05;;;;;;;8.20;3.35;;;;;;;3.10;60.53;102130.94;5030633;28;20033;-72
2021/03/07 09:14:35;;;;;;;5.50;3.45;;;;;;;2.93;60.05;102134.56;5034098;28;22078;-72
2021/03/07 09:17:03;;;;;;;5.93;3.60;;;;;;;3.04;60.46;102120.97;5032200;28;20033;-71
2021/03/07 09:19:33;;;;;;;5.35;3.38;;;;;;;3.22;60.41;102126.09;5028752;28;20136;-72
2021/03/07 09:22:22;;;;;;;8.43;3.80;;;;;;;3.08;60.34;102117.03;5031401;28;20037;-72
2021/03/07 09:24:55;;;;;;;6.18;3.60;;;;;;;3.07;60.93;102120.66;5031759;28;20120;-72
2021/03/07 09:27:23;;;;;;;6.35;3.05;;;;;;;3.08;61.22;102111.72;5030896;28;20035;-72
2021/03/07 09:29:56;;;;;;;5.10;3.25;;;;;;;3.03;60.91;102111.38;5032836;28;20034;-71
2021/03/07 09:32:46;;;;;;;11.18;3.80;;;;;;;2.99;60.99;102107.41;5036171;28;20165;-72
2021/03/07 09:35:27;;;;;;;7.80;4.68;;;;;;;3.15;60.89;102107.41;5020109;28;20036;-72
2021/03/07 09:38:01;;;;;;;6.95;3.60;;;;;;;3.11;60.98;102108.75;5029412;28;20033;-72
2021/03/07 09:40:38;;;;;;;5.85;3.03;;;;;;;3.13;60.89;102116.53;5031569;28;20040;-72
2021/03/07 09:43:09;;;;;;;4.60;2.97;;;;;;;3.27;60.75;102110.56;5028761;28;20126;-72
2021/03/07 09:45:40;;;;;;;7.18;2.90;;;;;;;2.99;60.67;102102.13;5027228;28;20037;-72
2021/03/07 09:48:06;;;;;;;7.40;3.97;;;;;;;3.17;60.77;102104.59;5028507;28;20037;-71
2021/03/07 09:50:32;;;;;;;4.20;3.20;;;;;;;3.06;60.97;102108.41;5031751;28;20029;-72
2021/03/07 09:52:58;;;;;;;7.43;3.67;;;;;;;3.08;60.39;102097.66;5025254;28;20044;-71
2021/03/07 09:55:29;;;;;;;4.88;3.10;;;;;;;3.17;60.24;102099.31;5033318;28;20032;-74
2021/03/07 09:58:05;;;;;;;6.57;3.58;;;;;;;3.31;60.24;102096.81;5031143;28;20083;-71
2021/03/07 10:00:36;;;;;;;6.78;3.83;;;;;;;3.33;59.66;102096.66;5031385;28;20021;-71
2021/03/07 10:03:03;;;;;;;5.70;3.40;;;;;;;3.39;59.79;102103.91;5031734;28;20032;-71
2021/03/07 10:05:29;;;;;;;4.03;3.05;;;;;;;3.08;59.72;102101.13;5035640;28;20025;-71
2021/03/07 10:07:54;;;;;;;14.20;4.47;;;;;;;3.13;60.41;102109.41;5033532;28;20029;-72
2021/03/07 10:10:23;;;;;;;10.48;3.78;;;;;;;3.16;60.34;102102.94;5031162;28;20438;-71
2021/03/07 10:12:49;;;;;;;5.20;3.47;;;;;;;3.29;59.57;102101.44;5035479;28;20031;-71
2021/03/07 10:15:29;;;;;;;5.57;3.30;;;;;;;3.22;59.34;102089.03;5036960;28;20036;-72
2021/03/07 10:17:57;;;;;;;6.00;3.67;;;;;;;3.24;59.59;102097.66;5032535;28;20029;-71
2021/03/07 10:20:22;;;;;;;6.10;4.20;;;;;;;3.28;59.94;102102.44;5032824;28;20856;-71
2021/03/07 10:22:48;;;;;;;6.38;3.60;;;;;;;3.42;59.12;102097.47;5035613;28;20117;-71
2021/03/07 10:25:32;;;;;;;6.00;3.70;;;;;;;3.44;58.79;102082.22;5037942;28;20150;-72
2021/03/07 10:28:04;;;;;;;4.60;3.20;;;;;;;3.39;59.28;102089.84;5038413;28;20448;-71
2021/03/07 10:30:41;;;;;;;6.10;3.75;;;;;;;3.56;58.58;102075.56;5032601;28;20052;-75
2021/03/07 10:33:18;;;;;;;7.00;3.40;;;;;;;3.61;58.35;102084.69;5030055;28;20213;-71
2021/03/07 10:36:08;;;;;;;8.18;3.60;;;;;;;3.63;58.39;102087.16;5039211;28;20025;-71
2021/03/07 10:38:40;;;;;;;4.68;3.20;;;;;;;3.83;57.36;102087.59;5036723;28;20611;-72
2021/03/07 10:41:32;;;;;;;8.77;3.58;;;;;;;3.77;57.87;102082.97;5038048;28;20029;-72
2021/03/07 10:44:04;;;;;;;5.28;3.97;;;;;;;3.75;57.90;102083.13;5034350;28;20029;-71
2021/03/07 10:46:38;;;;;;;10.05;3.72;;;;;;;3.91;57.12;102083.06;5036082;28;20159;-71
2021/03/07 10:49:06;;;;;;;6.93;3.22;;;;;;;3.68;58.06;102095.41;5035975;28;20388;-71
2021/03/07 10:51:32;;;;;;;7.65;4.47;;;;;;;3.85;57.16;102073.16;5037122;28;20098;-69
2021/03/07 10:53:58;;;;;;;6.28;4.00;;;;;;;3.67;57.67;102067.25;5036505;28;20021;-71
2021/03/07 10:56:38;;;;;;;5.10;4.05;;;;;;;3.83;57.32;102075.16;5039150;28;20044;-74
2021/03/07 10:59:04;;;;;;;4.95;3.58;;;;;;;3.68;57.54;102071.56;5045760;28;20107;-74
2021/03/07 11:01:30;;;;;;;7.43;3.50;;;;;;;3.90;57.85;102068.16;5043851;28;20498;-71
2021/03/07 11:03:55;;;;;;;10.25;3.47;;;;;;;3.87;57.19;102060.56;5042937;28;20024;-74
2021/03/07 11:06:21;;;;;;;8.00;4.22;;;;;;;3.94;57.76;102072.13;5043867;28;20040;-76
2021/03/07 11:08:48;;;;;;;9.30;3.85;;;;;;;3.85;57.47;102067.88;5044802;28;20729;-75
2021/03/07 11:11:14;;;;;;;4.55;3.35;;;;;;;3.86;57.07;102063.38;5045078;28;20099;-72
2021/03/07 11:13:40;;;;;;;9.20;4.28;;;;;;;3.86;57.73;102055.44;5040132;28;20098;-77
2021/03/07 11:16:06;;;;;;;9.65;3.60;;;;;;;4.14;57.34;102054.00;5045157;28;20598;-74
2021/03/07 11:18:32;;;;;;;7.15;3.22;;;;;;;4.07;56.74;102052.19;5039173;28;20038;-77
2021/03/07 11:20:57;;;;;;;11.98;3.70;;;;;;;3.87;57.44;102044.66;5041900;28;20029;-73
2021/03/07 11:23:23;;;;;;;6.75;3.65;;;;;;;3.85;57.04;102057.25;5042560;28;20024;-79
2021/03/07 11:25:49;;;;;;;4.10;3.03;;;;;;;3.79;56.94;102031.44;5038844;28;20507;-73
2021/03/07 11:28:14;;;;;;;4.28;2.95;;;;;;;3.91;57.40;102040.66;5043633;28;20032;-76
2021/03/07 11:30:40;;;;;;;6.90;3.97;;;;;;;3.86;57.64;102037.69;5037216;28;20039;-77
2021/03/07 11:33:06;;;;;;;6.45;3.53;;;;;;;4.05;57.21;102031.16;5032853;28;20090;-73
2021/03/07 11:35:32;;;;;;;7.40;3.38;;;;;;;3.87;57.45;102034.03;5041275;28;20041;-71
2021/03/07 11:37:58;;;;;;;9.48;3.83;;;;;;;4.19;57.48;102021.63;5037432;28;20098;-75
2021/03/07 11:40:27;;;;;;;6.75;4.05;;;;;;;4.11;57.41;102017.19;5035716;28;20039;-74
2021/03/07 11:42:54;;;;;;;7.25;3.88;;;;;;;4.15;57.08;102021.16;5035454;28;20037;-77
2021/03/07 11:45:19;;;;;;;5.93;3.42;;;;;;;4.17;57.16;102019.16;5036490;28;20092;-76